Time;durP1;ratioP1;P1;durP2;ratioP2;P2;SDS_P1;SDS_P2;PMS_P1;PMS_P2;Temp;Humidity;BMP_temperature;BMP_pressure;BME280_temperature;BME280_humidity;BME280_pressure;Samples;Min_cycle;Max_cycle;Signal;HPM_P1;HPM_P2
2022/01/08 00:02:57;;;;;;;7.40;2.58;;;;;;;;;;6316918;28;20032;-80
2022/01/08 00:05:58;;;;;;;6.00;2.60;;;;;;;;;;6300336;28;20020;-80
2022/01/08 00:08:59;;;;;;;5.35;2.28;;;2.60;99.90;;;;;;6318768;28;20024;-81
2022/01/08 00:11:59;;;;;;;4.00;2.28;;;3.00;99.90;;;;;;6300497;28;20020;-80
2022/01/08 00:15:00;;;;;;;2.47;2.00;;;3.10;99.90;;;;;;6316791;28;20048;-81
2022/01/08 00:18:01;;;;;;;3.60;2.10;;;;;;;;;;6317095;28;20066;-81
2022/01/08 00:21:02;;;;;;;6.43;2.65;;;;;;;;;;6316616;28;20575;-80
2022/01/08 00:24:03;;;;;;;6.13;2.38;;;3.40;99.90;;;;;;6318292;28;20034;-80
2022/01/08 00:27:04;;;;;;;2.60;2.25;;;;;;;;;;6283501;28;20063;-82
2022/01/08 00:30:05;;;;;;;4.90;1.95;;;3.90;99.90;;;;;;6299833;28;20092;-80
2022/01/08 00:33:06;;;;;;;3.05;2.00;;;;;;;;;;6282862;28;20093;-81
2022/01/08 00:36:07;;;;;;;2.72;1.85;;;3.80;99.90;;;;;;6317280;28;20040;-80
2022/01/08 00:39:08;;;;;;;5.85;2.88;;;;;;;;;;6316712;28;20028;-80
2022/01/08 00:42:08;;;;;;;3.67;2.00;;;3.80;99.90;;;;;;6316745;28;20024;-81
2022/01/08 00:45:10;;;;;;;6.72;2.60;;;;;;;;;;6316387;28;20424;-81
2022/01/08 00:48:11;;;;;;;3.83;2.10;;;;;;;;;;6316574;28;20426;-81
2022/01/08 00:51:11;;;;;;;4.95;2.22;;;3.60;99.90;;;;;;6316737;28;20024;-82
2022/01/08 00:54:12;;;;;;;5.70;2.40;;;3.30;99.90;;;;;;6298911;28;20378;-82
2022/01/08 00:57:12;;;;;;;3.60;2.33;;;3.40;99.90;;;;;;6316826;28;20028;-81
2022/01/08 01:00:13;;;;;;;4.88;2.30;;;3.50;99.90;;;;;;6282917;28;20031;-82
2022/01/08 01:03:14;;;;;;;2.42;1.95;;;;;;;;;;6287207;28;20079;-82
2022/01/08 01:06:15;;;;;;;2.95;2.20;;;3.40;99.90;;;;;;6321515;28;20032;-79
2022/01/08 01:09:16;;;;;;;2.55;2.10;;;;;;;;;;6304296;28;20025;-79
2022/01/08 01:12:16;;;;;;;3.47;2.10;;;3.50;99.90;;;;;;6322916;28;20417;-78
2022/01/08 01:15:17;;;;;;;3.30;2.25;;;3.40;99.90;;;;;;6321081;28;20039;-80
2022/01/08 01:18:18;;;;;;;2.10;1.90;;;;;;;;;;6321734;28;20035;-79
2022/01/08 01:21:19;;;;;;;3.30;1.88;;;;;;;;;;6321707;28;20039;-80
2022/01/08 01:24:23;;;;;;;4.22;1.80;;;3.10;99.90;;;;;;6322775;28;20024;-79
2022/01/08 01:27:52;;;;;;;2.55;1.83;;;3.20;99.90;;;;;;6322487;28;20056;-79
2022/01/08 01:47:00;;;;;;;2.90;2.25;;;2.80;99.90;;;;;;6320881;28;20031;-80
2022/01/08 01:47:18;;;;;;;3.00;1.83;;;2.80;99.90;;;;;;6319798;28;20074;-79
2022/01/08 01:50:19;;;;;;;2.53;1.95;;;3.10;99.90;;;;;;6320236;28;20036;-80
2022/01/08 01:53:20;;;;;;;1.33;1.02;;;;;;;;;;6320808;28;20031;-80
2022/01/08 01:56:20;;;;;;;1.38;1.27;;;3.20;99.90;;;;;;6320697;28;20020;-80
2022/01/08 01:59:21;;;;;;;0.63;0.63;;;;;;;;;;6303271;28;20107;-79
2022/01/08 02:02:22;;;;;;;1.17;0.95;;;;;;;;;;6321359;28;20787;-79
2022/01/08 02:05:23;;;;;;;0.93;0.93;;;;;;;;;;6321268;28;20032;-80
2022/01/08 02:08:24;;;;;;;0.80;0.80;;;3.60;99.90;;;;;;6320326;28;20028;-79
2022/01/08 02:11:25;;;;;;;0.65;0.65;;;;;;;;;;6320323;28;20414;-79
2022/01/08 02:14:27;;;;;;;0.63;0.63;;;3.80;99.90;;;;;;6320010;28;20389;-80
2022/01/08 02:17:28;;;;;;;0.63;0.60;;;;;;;;;;6303170;28;20031;-80
2022/01/08 02:20:29;;;;;;;0.60;0.60;;;;;;;;;;6320182;28;20044;-80
2022/01/08 02:23:30;;;;;;;0.40;0.40;;;4.00;99.90;;;;;;6320443;28;20563;-79
2022/01/08 02:26:31;;;;;;;0.83;0.83;;;;;;;;;;6303059;28;20374;-79
2022/01/08 02:29:32;;;;;;;0.30;0.30;;;3.90;99.90;;;;;;6320007;28;20482;-79
2022/01/08 02:32:33;;;;;;;0.45;0.45;;;4.10;99.90;;;;;;6319045;28;20048;-79
2022/01/08 02:35:34;;;;;;;1.08;0.60;;;;;;;;;;6318841;28;20456;-80
2022/01/08 02:38:35;;;;;;;0.90;0.90;;;4.00;99.90;;;;;;6319673;28;20031;-80
2022/01/08 02:41:36;;;;;;;1.25;1.15;;;;;;;;;;6302831;28;20459;-80
2022/01/08 02:44:36;;;;;;;0.70;0.70;;;4.10;99.90;;;;;;6319526;28;20048;-80
2022/01/08 02:47:37;;;;;;;0.63;0.63;;;;;;;;;;6319350;28;20035;-80
2022/01/08 02:50:38;;;;;;;0.88;0.77;;;;;;;;;;6286018;28;20077;-80
2022/01/08 02:53:39;;;;;;;0.85;0.85;;;;;;;;;;6320783;28;20079;-80
2022/01/08 02:56:41;;;;;;;0.70;0.70;;;3.80;99.90;;;;;;6285882;28;20074;-80
2022/01/08 02:59:42;;;;;;;0.73;0.73;;;;;;;;;;6302128;28;20028;-81
2022/01/08 03:02:43;;;;;;;1.67;1.20;;;3.60;99.90;;;;;;6319261;28;20093;-79
2022/01/08 03:05:44;;;;;;;1.33;0.90;;;3.70;99.90;;;;;;6302576;28;20409;-79
2022/01/08 03:08:45;;;;;;;1.67;1.25;;;;;;;;;;6318706;28;20051;-80
2022/01/08 03:11:46;;;;;;;1.58;1.13;;;3.90;99.90;;;;;;6319925;28;20465;-80
2022/01/08 03:14:47;;;;;;;1.27;1.10;;;;;;;;;;6318555;28;20077;-80
2022/01/08 03:17:48;;;;;;;2.05;1.13;;;;;;;;;;6320258;28;20028;-80
2022/01/08 03:20:53;;;;;;;1.13;1.05;;;4.10;99.90;;;;;;6318228;28;20024;-80
2022/01/08 03:24:00;;;;;;;1.98;1.58;;;3.50;99.90;;;;;;6318348;28;20032;-79
2022/01/08 03:27:01;;;;;;;1.63;0.98;;;3.50;99.90;;;;;;6302577;28;20020;-79
2022/01/08 03:30:03;;;;;;;2.65;1.50;;;4.00;99.90;;;;;;6318435;28;20512;-80
2022/01/08 03:33:04;;;;;;;1.83;1.60;;;3.60;99.90;;;;;;6317959;28;20047;-80
2022/01/08 03:36:05;;;;;;;1.50;1.40;;;;;;;;;;6318505;28;20082;-78
2022/01/08 03:39:06;;;;;;;2.13;1.50;;;3.40;99.90;;;;;;6317821;28;20474;-79
2022/01/08 03:42:07;;;;;;;4.15;1.80;;;;;;;;;;6317740;28;20036;-80
2022/01/08 03:45:07;;;;;;;1.35;1.25;;;3.80;99.90;;;;;;6318316;28;20610;-80
2022/01/08 03:48:25;;;;;;;1.20;1.10;;;3.20;99.90;;;;;;6318298;28;20624;-80
2022/01/08 03:51:26;;;;;;;1.73;1.60;;;;;;;;;;6317973;28;20438;-79
2022/01/08 03:54:27;;;;;;;1.48;1.30;;;;;;;;;;6296473;28;20043;-79
2022/01/08 03:57:28;;;;;;;1.42;1.33;;;3.60;99.90;;;;;;6317667;28;20043;-79
2022/01/08 04:00:29;;;;;;;2.00;1.80;;;;;;;;;;6317726;28;20043;-79
2022/01/08 04:03:29;;;;;;;1.83;1.23;;;3.40;99.90;;;;;;6317430;28;20020;-79
2022/01/08 04:06:30;;;;;;;3.95;1.35;;;3.40;99.90;;;;;;6300703;28;20111;-79
2022/01/08 04:09:31;;;;;;;1.77;1.52;;;3.40;99.90;;;;;;6317171;28;20489;-80
2022/01/08 04:12:38;;;;;;;2.67;1.70;;;3.40;99.90;;;;;;6317412;28;20032;-80
2022/01/08 04:15:41;;;;;;;1.90;1.40;;;3.70;99.90;;;;;;6317503;28;20499;-80
2022/01/08 04:18:42;;;;;;;3.13;1.67;;;;;;;;;;6283992;28;20020;-79
2022/01/08 04:22:10;;;;;;;2.33;1.70;;;3.60;99.90;;;;;;6316805;28;20043;-80
2022/01/08 04:25:10;;;;;;;2.38;1.77;;;3.50;99.90;;;;;;6317236;28;20016;-80
2022/01/08 04:28:11;;;;;;;2.70;2.13;;;;;;;;;;6300117;28;20046;-79
2022/01/08 04:31:13;;;;;;;2.03;1.70;;;;;;;;;;6318001;28;20060;-79
2022/01/08 04:34:14;;;;;;;1.80;1.70;;;3.60;99.90;;;;;;6318327;28;20051;-80
2022/01/08 04:37:15;;;;;;;3.10;1.73;;;;;;;;;;6316101;28;20071;-80
2022/01/08 04:40:15;;;;;;;2.47;1.60;;;3.10;99.90;;;;;;6316722;28;20077;-80
2022/01/08 04:43:16;;;;;;;1.45;1.35;;;3.00;99.90;;;;;;6316645;28;20039;-80
2022/01/08 04:46:17;;;;;;;1.17;1.17;;;;;;;;;;6316826;28;20050;-80
2022/01/08 04:49:18;;;;;;;1.52;1.38;;;;;;;;;;6316994;28;20445;-80
2022/01/08 04:52:18;;;;;;;4.05;1.65;;;2.90;99.90;;;;;;6316662;28;20024;-80
2022/01/08 04:55:19;;;;;;;1.40;1.30;;;3.10;99.90;;;;;;6299983;28;20079;-81
2022/01/08 04:58:20;;;;;;;1.05;1.05;;;3.00;99.90;;;;;;6299402;28;20039;-80
2022/01/08 05:01:21;;;;;;;1.20;1.17;;;;;;;;;;6316506;28;20028;-80
2022/01/08 05:04:21;;;;;;;1.10;1.10;;;3.10;99.90;;;;;;6317852;28;20512;-81
2022/01/08 05:07:22;;;;;;;1.10;1.10;;;;;;;;;;6315969;28;20036;-81
2022/01/08 05:10:23;;;;;;;1.23;1.13;;;3.10;99.90;;;;;;6317689;28;20153;-80
2022/01/08 05:13:23;;;;;;;1.25;1.10;;;2.90;99.90;;;;;;6316574;28;20094;-81
2022/01/08 05:16:25;;;;;;;1.13;1.13;;;2.90;99.90;;;;;;6316546;28;20123;-80
2022/01/08 05:19:38;;;;;;;1.10;1.10;;;2.80;99.90;;;;;;6299565;28;20028;-80
2022/01/08 05:22:53;;;;;;;1.15;1.13;;;;;;;;;;6316681;28;20121;-79
2022/01/08 05:25:54;;;;;;;1.35;1.25;;;2.90;99.90;;;;;;6318022;28;20024;-80
2022/01/08 05:28:54;;;;;;;1.40;1.30;;;3.00;99.90;;;;;;6300076;28;20519;-80
2022/01/08 05:31:55;;;;;;;1.33;1.20;;;2.80;99.90;;;;;;6315612;28;20505;-80
2022/01/08 05:34:56;;;;;;;2.90;1.40;;;3.00;99.90;;;;;;6317341;28;20044;-79
2022/01/08 05:37:57;;;;;;;1.23;1.13;;;;;;;;;;6315825;28;20032;-80
2022/01/08 05:40:58;;;;;;;1.20;1.10;;;;;;;;;;6317624;28;20024;-80
2022/01/08 05:43:59;;;;;;;1.20;1.10;;;;;;;;;;6315495;28;20028;-80
2022/01/08 05:47:00;;;;;;;1.15;1.13;;;;;;;;;;6316009;28;20519;-81
2022/01/08 05:50:01;;;;;;;0.93;0.93;;;2.90;99.90;;;;;;6320486;28;20016;-79
2022/01/08 05:53:01;;;;;;;1.20;1.10;;;2.40;99.90;;;;;;6321746;28;20421;-79
2022/01/08 05:56:02;;;;;;;1.30;1.20;;;;;;;;;;6303510;28;20080;-79
2022/01/08 05:59:03;;;;;;;1.48;1.23;;;;;;;;;;6320349;28;20032;-79
2022/01/08 06:02:05;;;;;;;2.78;1.20;;;;;;;;;;6321775;28;20103;-80
2022/01/08 06:05:06;;;;;;;1.23;1.20;;;;;;;;;;6321436;28;20032;-80
2022/01/08 06:08:07;;;;;;;2.05;1.35;;;;;;;;;;6320393;28;20024;-80
2022/01/08 06:11:08;;;;;;;1.20;1.10;;;;;;;;;;6320191;28;20028;-80
2022/01/08 06:14:09;;;;;;;2.45;1.15;;;;;;;;;;6319834;28;20092;-80
2022/01/08 06:17:11;;;;;;;2.17;1.35;;;2.40;99.90;;;;;;6319802;28;20020;-79
2022/01/08 06:20:12;;;;;;;1.02;1.02;;;;;;;;;;6321543;28;20038;-79
2022/01/08 06:23:13;;;;;;;2.45;1.80;;;;;;;;;;6321332;28;20020;-80
2022/01/08 06:26:14;;;;;;;1.40;1.25;;;;;;;;;;6321615;28;20024;-80
2022/01/08 06:29:14;;;;;;;1.95;1.85;;;2.50;99.90;;;;;;6321038;28;20478;-80
2022/01/08 06:32:16;;;;;;;1.52;1.42;;;;;;;;;;6319389;28;20083;-80
2022/01/08 06:35:17;;;;;;;1.70;1.60;;;2.80;99.90;;;;;;6319633;28;20043;-80
2022/01/08 06:38:18;;;;;;;1.75;1.65;;;2.10;99.90;;;;;;6320582;28;20119;-81
2022/01/08 06:41:19;;;;;;;3.05;2.15;;;2.30;99.90;;;;;;6302284;28;20489;-80
2022/01/08 06:44:19;;;;;;;3.45;1.90;;;2.30;99.90;;;;;;6319911;28;20060;-81
2022/01/08 06:47:20;;;;;;;2.20;2.00;;;;;;;;;;6320771;28;20466;-78
2022/01/08 06:50:21;;;;;;;14.80;8.70;;;;;;;;;;6320522;28;20165;-80
2022/01/08 06:53:22;;;;;;;3.92;2.97;;;2.20;99.90;;;;;;6319187;28;20036;-80
2022/01/08 06:56:23;;;;;;;2.83;2.30;;;;;;;;;;6302697;28;20032;-79
2022/01/08 06:59:23;;;;;;;3.17;2.88;;;2.10;99.90;;;;;;6319653;28;20059;-80
2022/01/08 07:02:24;;;;;;;3.90;2.92;;;2.20;99.90;;;;;;6318810;28;20036;-80
2022/01/08 07:05:25;;;;;;;2.85;2.47;;;;;;;;;;6301959;28;20424;-80
2022/01/08 07:08:26;;;;;;;2.33;1.77;;;2.60;99.90;;;;;;6318937;28;20024;-80
2022/01/08 07:11:27;;;;;;;2.55;2.13;;;;;;;;;;6319188;28;20478;-79
2022/01/08 07:14:27;;;;;;;4.10;2.53;;;2.10;99.90;;;;;;6320006;28;20044;-80
2022/01/08 07:17:28;;;;;;;5.57;2.20;;;;;;;;;;6320091;28;20101;-80
2022/01/08 07:20:29;;;;;;;3.65;2.15;;;1.90;99.90;;;;;;6318855;28;20031;-80
2022/01/08 07:23:29;;;;;;;5.45;2.22;;;2.00;99.90;;;;;;6301255;28;20502;-80
2022/01/08 07:26:30;;;;;;;2.83;2.28;;;;;;;;;;6318176;28;20031;-80
2022/01/08 07:29:31;;;;;;;4.65;2.42;;;;;;;;;;6319615;28;20043;-81
2022/01/08 07:32:32;;;;;;;3.75;2.30;;;2.10;99.90;;;;;;6319477;28;20051;-80
2022/01/08 07:35:32;;;;;;;3.70;2.35;;;2.30;99.90;;;;;;6318047;28;20630;-80
2022/01/08 07:38:33;;;;;;;2.55;2.35;;;2.00;99.90;;;;;;6317834;28;20064;-80
2022/01/08 07:41:33;;;;;;;3.63;2.30;;;1.90;99.90;;;;;;6319194;28;20441;-79
2022/01/08 07:44:34;;;;;;;2.38;1.92;;;2.10;99.90;;;;;;6284451;28;20028;-80
2022/01/08 07:47:35;;;;;;;6.63;2.05;;;1.80;99.90;;;;;;6300789;28;20363;-80
2022/01/08 07:50:36;;;;;;;2.95;2.30;;;;;;;;;;6300747;28;20028;-80
2022/01/08 07:53:37;;;;;;;4.05;2.00;;;;;;;;;;6318684;28;20031;-80
2022/01/08 07:56:37;;;;;;;2.10;1.95;;;2.00;99.90;;;;;;6318989;28;20394;-79
2022/01/08 07:59:38;;;;;;;2.22;1.90;;;1.90;99.90;;;;;;6317747;28;20024;-81
2022/01/08 08:02:38;;;;;;;5.32;2.10;;;2.10;99.90;;;;;;6317685;28;20030;-79
2022/01/08 08:05:39;;;;;;;3.45;2.10;;;1.90;99.90;;;;;;6299959;28;20032;-79
2022/01/08 08:08:40;;;;;;;3.17;2.10;;;1.90;99.90;;;;;;6318364;28;20024;-80
2022/01/08 08:11:41;;;;;;;2.72;2.40;;;2.10;99.90;;;;;;6316082;28;20481;-79
2022/01/08 08:14:42;;;;;;;3.25;2.30;;;;;;;;;;6317469;28;20081;-80
2022/01/08 08:17:42;;;;;;;12.48;4.10;;;2.30;99.90;;;;;;6317776;28;20522;-81
2022/01/08 08:20:43;;;;;;;2.30;2.10;;;1.90;99.90;;;;;;6316858;28;20489;-80
2022/01/08 08:23:44;;;;;;;3.67;2.05;;;2.40;99.90;;;;;;6318528;28;20111;-80
2022/01/08 08:26:44;;;;;;;2.47;2.00;;;2.10;99.90;;;;;;6300040;28;20462;-82
2022/01/08 08:29:45;;;;;;;2.47;2.20;;;2.50;99.90;;;;;;6300159;28;20074;-80
2022/01/08 08:32:46;;;;;;;2.15;1.60;;;;;;;;;;6317943;28;20082;-80
2022/01/08 08:35:47;;;;;;;5.15;2.33;;;;;;;;;;6316698;28;20070;-80
2022/01/08 08:38:48;;;;;;;2.20;2.00;;;2.40;99.90;;;;;;6316249;28;20026;-80
2022/01/08 08:41:49;;;;;;;2.92;2.03;;;;;;;;;;6283156;28;20032;-79
2022/01/08 08:44:49;;;;;;;4.25;2.08;;;2.50;99.90;;;;;;6315875;28;20418;-81
2022/01/08 08:47:51;;;;;;;2.88;1.88;;;;;;;;;;6298983;28;20032;-81
2022/01/08 08:50:51;;;;;;;3.67;2.35;;;;;;;;;;6312538;28;20099;-80
2022/01/08 08:53:52;;;;;;;3.78;2.30;;;2.70;99.90;;;;;;6306256;28;20043;-81
2022/01/08 08:56:53;;;;;;;3.72;2.05;;;2.60;99.90;;;;;;6298633;28;20067;-82
2022/01/08 08:59:55;;;;;;;2.60;2.00;;;2.70;99.90;;;;;;6315757;28;20082;-81
2022/01/08 09:02:56;;;;;;;6.32;3.22;;;;;;;;;;6298308;28;20028;-79
2022/01/08 09:05:56;;;;;;;3.90;2.45;;;2.80;99.90;;;;;;6316221;28;20157;-83
2022/01/08 09:08:57;;;;;;;8.40;4.53;;;;;;;;;;6299404;28;20389;-82
2022/01/08 09:11:58;;;;;;;3.25;2.50;;;3.10;99.90;;;;;;6298475;28;20470;-82
2022/01/08 09:14:59;;;;;;;4.90;2.38;;;;;;;;;;6316068;28;20040;-81
2022/01/08 09:17:59;;;;;;;4.20;2.10;;;3.00;99.90;;;;;;6299231;28;20028;-81
2022/01/08 09:21:00;;;;;;;4.18;2.17;;;3.10;99.90;;;;;;6317576;28;20043;-80
2022/01/08 09:24:01;;;;;;;5.13;2.30;;;;;;;;;;6321060;28;20071;-81
2022/01/08 09:27:02;;;;;;;6.60;2.50;;;;;;;;;;6320312;28;20024;-81
2022/01/08 09:30:04;;;;;;;3.70;2.00;;;3.00;99.90;;;;;;6321888;28;20028;-82
2022/01/08 09:33:06;;;;;;;3.90;2.40;;;;;;;;;;6319803;28;20089;-82
2022/01/08 09:36:07;;;;;;;4.97;2.22;;;;;;;;;;6320266;28;20583;-82
2022/01/08 09:39:08;;;;;;;4.50;2.08;;;;;;;;;;6321169;28;20386;-81
2022/01/08 09:42:09;;;;;;;2.55;1.85;;;;;;;;;;6319905;28;20063;-81
2022/01/08 09:45:10;;;;;;;2.65;2.08;;;;;;;;;;6319440;28;20439;-82
2022/01/08 09:48:11;;;;;;;4.35;2.00;;;3.60;99.90;;;;;;6301698;28;20512;-82
2022/01/08 09:51:12;;;;;;;6.55;2.60;;;3.80;99.90;;;;;;6302564;28;20118;-81
2022/01/08 09:54:13;;;;;;;2.72;2.00;;;;;;;;;;6320573;28;20067;-81
2022/01/08 09:57:14;;;;;;;4.68;2.17;;;;;;;;;;6319480;28;20032;-82
2022/01/08 10:00:16;;;;;;;3.22;2.65;;;3.60;99.90;;;;;;6302414;28;20621;-83
2022/01/08 10:03:18;;;;;;;3.08;2.10;;;3.50;99.90;;;;;;6320210;28;20076;-82
2022/01/08 10:06:26;;;;;;;2.47;1.95;;;3.50;99.90;;;;;;6319720;28;20035;-81
2022/01/08 10:09:26;;;;;;;4.97;2.20;;;3.60;99.90;;;;;;6303414;28;20081;-83
2022/01/08 10:12:47;;;;;;;5.22;2.40;;;3.60;99.90;;;;;;6319883;28;20055;-83
2022/01/08 10:19:21;;;;;;;2.53;2.17;;;4.40;99.90;;;;;;6319939;28;20040;-83
2022/01/08 10:22:21;;;;;;;4.57;2.00;;;5.00;99.90;;;;;;6303410;28;20530;-82
2022/01/08 10:25:22;;;;;;;4.00;2.17;;;5.70;99.90;;;;;;6319848;28;20073;-83
2022/01/08 10:28:39;;;;;;;3.67;2.08;;;6.10;99.90;;;;;;6303261;28;20123;-79
2022/01/08 10:31:50;;;;;;;1.60;1.50;;;7.50;99.90;;;;;;6320373;28;20039;-85
2022/01/08 10:34:51;;;;;;;6.20;3.05;;;8.60;99.90;;;;;;6318880;28;20063;-81
2022/01/08 10:37:52;;;;;;;6.88;2.00;;;8.80;97.70;;;;;;6318909;28;20413;-82
2022/01/08 10:40:52;;;;;;;3.60;1.75;;;8.00;99.90;;;;;;6302037;28;20429;-82
2022/01/08 10:44:07;;;;;;;1.25;1.15;;;6.80;99.90;;;;;;6319101;28;20100;-81
2022/01/08 10:47:16;;;;;;;1.38;1.00;;;6.00;99.90;;;;;;6319586;28;20069;-82
2022/01/08 10:50:17;;;;;;;3.42;1.90;;;6.00;99.90;;;;;;6301899;28;20032;-81
2022/01/08 10:53:17;;;;;;;3.40;1.75;;;5.40;99.90;;;;;;6301212;28;20397;-81
2022/01/08 10:56:32;;;;;;;3.05;1.60;;;5.20;99.90;;;;;;6317796;28;20119;-80
2022/01/08 10:59:34;;;;;;;1.92;1.27;;;5.40;99.90;;;;;;6302339;28;20020;-80
2022/01/08 11:02:34;;;;;;;1.10;1.10;;;5.40;99.90;;;;;;6302046;28;20024;-80
2022/01/08 11:06:01;;;;;;;3.95;2.72;;;5.30;99.90;;;;;;6301856;28;20293;-81
2022/01/08 11:09:02;;;;;;;2.35;2.15;;;5.00;99.90;;;;;;6285985;28;20032;-81
2022/01/08 11:12:03;;;;;;;3.33;2.70;;;4.70;99.90;;;;;;6318212;28;20434;-81
2022/01/08 11:18:12;;;;;;;4.25;2.58;;;5.20;99.90;;;;;;6318908;28;20284;-80
2022/01/08 11:21:13;;;;;;;1.83;1.73;;;5.90;99.90;;;;;;6317941;28;20028;-81
2022/01/08 11:24:15;;;;;;;3.13;1.92;;;5.90;99.90;;;;;;6300151;28;20501;-80
2022/01/08 11:27:19;;;;;;;2.83;1.98;;;5.80;99.90;;;;;;6300319;28;20020;-81
2022/01/08 11:30:24;;;;;;;3.65;2.08;;;5.70;99.90;;;;;;6301675;28;20085;-81
2022/01/08 11:33:31;;;;;;;6.28;4.88;;;6.00;99.90;;;;;;6316855;28;20047;-82
2022/01/08 11:36:43;;;;;;;2.38;2.17;;;6.90;99.90;;;;;;6300473;28;20071;-82
2022/01/08 11:39:46;;;;;;;2.15;1.90;;;6.80;99.90;;;;;;6305353;28;20024;-81
2022/01/08 11:42:47;;;;;;;11.02;4.95;;;9.60;99.90;;;;;;6300533;28;20024;-81
2022/01/08 11:45:52;;;;;;;3.58;1.95;;;7.50;98.00;;;;;;6318986;28;20051;-80
2022/01/08 11:48:53;;;;;;;2.50;1.20;;;7.40;97.50;;;;;;6300731;28;20031;-82
2022/01/08 11:52:22;;;;;;;1.27;1.17;;;7.80;96.90;;;;;;6284069;28;20525;-83
2022/01/08 11:55:34;;;;;;;2.67;1.33;;;6.50;99.90;;;;;;6317272;28;20036;-83
2022/01/08 11:58:35;;;;;;;4.13;2.33;;;6.70;99.90;;;;;;6318102;28;20472;-81
2022/01/08 12:01:37;;;;;;;3.53;1.90;;;5.90;99.90;;;;;;6316828;28;20119;-81
2022/01/08 12:04:38;;;;;;;2.83;2.03;;;;;;;;;;6318298;28;20421;-80
2022/01/08 12:07:45;;;;;;;29.05;17.15;;;5.80;99.90;;;;;;6316904;28;20478;-80
2022/01/08 12:10:56;;;;;;;2.63;2.38;;;5.60;99.90;;;;;;6317152;28;20028;-79
2022/01/08 12:14:11;;;;;;;4.13;2.35;;;5.60;99.90;;;;;;6315876;28;20047;-83
2022/01/08 12:17:20;;;;;;;2.50;2.30;;;6.20;99.90;;;;;;6285037;28;20035;-80
2022/01/08 12:20:52;;;;;;;21.38;10.50;;;5.50;99.90;;;;;;6306664;28;20039;-79
2022/01/08 12:23:53;;;;;;;6.32;5.72;;;6.80;99.90;;;;;;6298587;28;20043;-78
2022/01/08 12:26:54;;;;;;;2.70;2.50;;;6.30;99.90;;;;;;6315116;28;20032;-78
2022/01/08 12:29:55;;;;;;;1.95;1.70;;;6.50;99.90;;;;;;6299529;28;20469;-78
2022/01/08 12:33:18;;;;;;;5.80;1.55;;;7.30;99.90;;;;;;6318293;28;20085;-79
2022/01/08 12:36:27;;;;;;;5.78;2.53;;;7.00;99.90;;;;;;6316417;28;20040;-77
2022/01/08 12:39:52;;;;;;;1.77;1.60;;;7.30;99.90;;;;;;6300302;28;20040;-78
2022/01/08 12:42:53;;;;;;;1.17;0.80;;;7.40;99.90;;;;;;6317871;28;20032;-77
2022/01/08 12:46:10;;;;;;;2.92;2.53;;;7.30;99.90;;;;;;6316554;28;20031;-79
2022/01/08 12:49:12;;;;;;;1.48;1.17;;;;;;;;;;6301670;28;20024;-77
2022/01/08 12:52:13;;;;;;;3.28;1.83;;;;;;;;;;6317940;28;20039;-78
2022/01/08 12:55:14;;;;;;;4.78;3.10;;;6.90;99.90;;;;;;6317435;28;20032;-78
2022/01/08 12:58:38;;;;;;;3.92;3.20;;;7.70;99.90;;;;;;6299413;28;20028;-78
2022/01/08 13:01:40;;;;;;;2.17;1.80;;;6.60;99.90;;;;;;6317842;28;20056;-80
2022/01/08 13:04:42;;;;;;;2.65;1.63;;;;;;;;;;6283292;28;20039;-80
2022/01/08 13:07:49;;;;;;;2.70;1.50;;;6.20;99.90;;;;;;6316453;28;20028;-80
2022/01/08 13:10:56;;;;;;;1.75;1.48;;;6.30;99.90;;;;;;6316343;28;20119;-80
2022/01/08 13:14:04;;;;;;;2.45;1.98;;;6.20;99.90;;;;;;6316144;28;20036;-78
2022/01/08 13:17:04;;;;;;;3.28;1.95;;;6.20;99.90;;;;;;6316441;28;20020;-81
2022/01/08 13:20:06;;;;;;;3.78;1.92;;;6.20;99.90;;;;;;6314964;28;20028;-80
2022/01/08 13:23:10;;;;;;;3.75;2.53;;;6.10;99.90;;;;;;6282953;28;20478;-81
2022/01/08 13:26:10;;;;;;;2.17;1.70;;;6.00;99.10;;;;;;6317295;28;20085;-82
2022/01/08 13:29:31;;;;;;;3.83;1.58;;;6.60;99.90;;;;;;6282833;28;20115;-81
2022/01/08 13:32:32;;;;;;;3.53;2.03;;;6.00;99.90;;;;;;6299272;28;20044;-81
2022/01/08 13:35:34;;;;;;;6.78;4.43;;;6.00;97.90;;;;;;6314827;28;20576;-81
2022/01/08 13:38:36;;;;;;;3.05;2.22;;;6.20;99.90;;;;;;6298774;28;20031;-81
2022/01/08 13:41:36;;;;;;;1.70;1.17;;;6.20;99.20;;;;;;6299079;28;20042;-82
2022/01/08 13:44:38;;;;;;;2.80;2.08;;;6.20;97.40;;;;;;6282210;28;20390;-82
2022/01/08 13:47:43;;;;;;;2.83;1.70;;;6.30;97.50;;;;;;6297918;28;20039;-82
2022/01/08 13:50:47;;;;;;;2.25;1.80;;;6.20;96.50;;;;;;6283918;28;20067;-82
2022/01/08 13:54:02;;;;;;;2.53;1.88;;;6.30;97.20;;;;;;6281567;28;20031;-84
2022/01/08 13:57:13;;;;;;;2.55;2.03;;;6.50;99.90;;;;;;6299347;28;20066;-84
2022/01/08 14:00:14;;;;;;;1.38;1.27;;;6.50;99.90;;;;;;6314069;28;20028;-82
2022/01/08 14:03:38;;;;;;;2.00;1.80;;;6.40;96.10;;;;;;6299043;28;20032;-81
2022/01/08 14:06:40;;;;;;;1.50;1.40;;;7.20;97.20;;;;;;6305413;28;20043;-81
2022/01/08 14:09:40;;;;;;;2.33;2.10;;;6.20;99.90;;;;;;6317198;28;20099;-81
2022/01/08 14:13:02;;;;;;;3.15;1.80;;;6.00;99.90;;;;;;6320022;28;20437;-83
2022/01/08 14:16:09;;;;;;;2.30;1.60;;;5.80;99.90;;;;;;6287263;28;20123;-83
2022/01/08 14:19:10;;;;;;;1.40;1.30;;;6.00;99.90;;;;;;6286649;28;20020;-84
2022/01/08 14:22:12;;;;;;;2.33;1.70;;;5.80;97.90;;;;;;6302936;28;20028;-84
2022/01/08 14:25:19;;;;;;;2.45;2.20;;;7.20;97.60;;;;;;6303305;28;20028;-85
2022/01/08 14:28:28;;;;;;;4.43;2.65;;;5.70;97.60;;;;;;6286505;28;20496;-85
2022/01/08 14:31:30;;;;;;;2.60;2.35;;;5.20;99.90;;;;;;6301928;28;20469;-84
2022/01/08 14:34:32;;;;;;;2.63;1.88;;;5.30;99.90;;;;;;6302791;28;20052;-85
2022/01/08 14:37:38;;;;;;;3.35;1.80;;;5.70;99.90;;;;;;6302988;28;20458;-81
2022/01/08 14:40:44;;;;;;;1.83;1.67;;;5.30;97.10;;;;;;6285467;28;20098;-81
2022/01/08 14:43:45;;;;;;;5.07;2.60;;;5.10;99.90;;;;;;6302582;28;20024;-80
2022/01/08 14:46:47;;;;;;;2.88;2.20;;;5.10;97.50;;;;;;6302142;28;20119;-81
2022/01/08 14:49:47;;;;;;;1.42;1.33;;;5.10;99.90;;;;;;6285205;28;20028;-81
2022/01/08 14:52:49;;;;;;;1.95;1.75;;;4.90;99.90;;;;;;6301925;28;20113;-81
2022/01/08 14:55:49;;;;;;;3.80;2.00;;;5.50;99.90;;;;;;6285914;28;20089;-81
2022/01/08 14:58:50;;;;;;;2.35;2.15;;;;;;;;;;6302529;28;20052;-80
2022/01/08 15:01:53;;;;;;;1.73;1.55;;;;;;;;;;6320298;28;20016;-81
2022/01/08 15:04:54;;;;;;;1.95;1.48;;;5.10;99.90;;;;;;6286380;28;20020;-80
2022/01/08 15:07:55;;;;;;;2.78;1.60;;;5.10;99.90;;;;;;6285365;28;20055;-81
2022/01/08 15:10:56;;;;;;;3.05;1.50;;;;;;;;;;6301371;28;20044;-81
2022/01/08 15:13:56;;;;;;;6.85;2.92;;;4.70;99.90;;;;;;6301639;28;20380;-81
2022/01/08 15:16:57;;;;;;;2.17;1.80;;;5.00;99.90;;;;;;6318328;28;20039;-81
2022/01/08 15:19:58;;;;;;;1.60;1.48;;;;;;;;;;6301499;28;20028;-81
2022/01/08 15:23:02;;;;;;;1.27;1.17;;;;;;;;;;6318601;28;20028;-81
2022/01/08 15:26:03;;;;;;;8.25;5.53;;;4.70;99.90;;;;;;6302267;28;20053;-81
2022/01/08 15:29:03;;;;;;;2.78;1.90;;;4.70;99.90;;;;;;6301325;28;20630;-81
2022/01/08 15:32:04;;;;;;;3.05;2.22;;;;;;;;;;6301127;28;20032;-80
2022/01/08 15:35:05;;;;;;;5.57;2.35;;;4.60;99.90;;;;;;6288216;28;20592;-81
2022/01/08 15:38:06;;;;;;;3.78;2.63;;;4.70;99.90;;;;;;6300798;28;20123;-81
2022/01/08 15:41:06;;;;;;;5.13;2.90;;;4.50;99.90;;;;;;6284716;28;20039;-80
2022/01/08 15:44:07;;;;;;;3.85;2.63;;;4.20;99.90;;;;;;6316944;28;20024;-81
2022/01/08 15:47:08;;;;;;;3.85;2.00;;;4.60;99.90;;;;;;6317837;28;20462;-81
2022/01/08 15:50:09;;;;;;;2.90;2.40;;;4.50;99.90;;;;;;6319215;28;20028;-81
2022/01/08 15:53:10;;;;;;;2.25;1.75;;;4.40;99.90;;;;;;6317827;28;20425;-81
2022/01/08 15:56:12;;;;;;;3.03;2.33;;;;;;;;;;6300620;28;20044;-81
2022/01/08 15:59:13;;;;;;;3.17;2.10;;;;;;;;;;6317583;28;20020;-81
2022/01/08 16:02:14;;;;;;;3.67;1.88;;;;;;;;;;6317599;28;20054;-81
2022/01/08 16:05:22;;;;;;;3.35;1.77;;;4.80;99.90;;;;;;6318732;28;20026;-81
2022/01/08 16:08:24;;;;;;;2.85;1.20;;;;;;;;;;6317402;28;20016;-81
2022/01/08 16:11:25;;;;;;;4.60;2.63;;;4.70;99.90;;;;;;6318519;28;20444;-81
2022/01/08 16:14:26;;;;;;;5.78;2.97;;;;;;;;;;6316985;28;20092;-81
2022/01/08 16:17:27;;;;;;;20.67;8.88;;;;;;;;;;6318326;28;20076;-81
2022/01/08 16:20:28;;;;;;;3.42;2.63;;;4.30;99.90;;;;;;6317123;28;20557;-81
2022/01/08 16:23:29;;;;;;;2.72;2.08;;;;;;;;;;6316547;28;20027;-80
2022/01/08 16:26:30;;;;;;;3.03;2.30;;;;;;;;;;6317201;28;20027;-81
2022/01/08 16:29:31;;;;;;;5.55;3.05;;;;;;;;;;6316790;28;20032;-82
2022/01/08 16:32:32;;;;;;;8.40;6.30;;;;;;;;;;6315828;28;20054;-81
2022/01/08 16:35:32;;;;;;;8.48;3.92;;;4.60;99.90;;;;;;6316534;28;20040;-82
2022/01/08 16:38:33;;;;;;;2.78;1.50;;;;;;;;;;6299955;28;20040;-81
2022/01/08 16:41:34;;;;;;;4.43;2.85;;;4.80;99.90;;;;;;6286133;28;20431;-82
2022/01/08 16:44:35;;;;;;;3.90;2.00;;;4.60;99.90;;;;;;6299349;28;20040;-81
2022/01/08 16:47:36;;;;;;;2.90;2.40;;;;;;;;;;6300114;28;20115;-81
2022/01/08 16:50:36;;;;;;;5.07;3.42;;;4.70;99.90;;;;;;6317804;28;20081;-81
2022/01/08 16:53:39;;;;;;;2.20;1.85;;;;;;;;;;6299669;28;20032;-81
2022/01/08 16:56:40;;;;;;;1.88;1.38;;;;;;;;;;6294081;28;20024;-81
2022/01/08 16:59:41;;;;;;;3.63;2.15;;;4.60;99.90;;;;;;6300065;28;20028;-80
2022/01/08 17:02:42;;;;;;;3.05;2.10;;;;;;;;;;6293854;28;20089;-80
2022/01/08 17:05:43;;;;;;;5.05;1.92;;;;;;;;;;6315002;28;20067;-79